createdAt,value
2019-04-03T00:00:40.436Z,97380.24
2019-04-03T00:03:09.058Z,97378.48
2019-04-03T00:05:37.703Z,97385.52
2019-04-03T00:08:07.035Z,97386.72
2019-04-03T00:10:38.097Z,97377.22
2019-04-03T00:13:06.497Z,97379.59
2019-04-03T00:15:35.469Z,97382.71
2019-04-03T00:18:04.210Z,97377.47
2019-04-03T00:20:32.844Z,97383.09
2019-04-03T00:23:01.352Z,97382.95
2019-04-03T00:25:30.048Z,97383.86
2019-04-03T00:27:58.699Z,97376.70
2019-04-03T00:30:27.409Z,97378.50
2019-04-03T00:32:56.094Z,97373.22
2019-04-03T00:35:24.744Z,97374.56
2019-04-03T00:37:53.936Z,97373.63
2019-04-03T00:40:24.737Z,97374.40
2019-04-03T00:42:54.939Z,97371.52
2019-04-03T00:45:24.473Z,97368.66
2019-04-03T00:47:56.076Z,97363.38
2019-04-03T00:50:26.927Z,97368.30
2019-04-03T00:52:57.054Z,97369.82
2019-04-03T00:55:26.680Z,97369.70
2019-04-03T00:57:56.527Z,97371.91
2019-04-03T01:00:26.426Z,97367.05
2019-04-03T01:02:58.104Z,97368.15
2019-04-03T01:05:28.065Z,97369.27
2019-04-03T01:07:56.320Z,97366.36
2019-04-03T01:10:26.370Z,97366.17
2019-04-03T01:12:55.384Z,97366.16
2019-04-03T01:15:24.031Z,97363.91
2019-04-03T01:17:52.677Z,97359.80
2019-04-03T01:20:21.245Z,97357.00
2019-04-03T01:22:49.754Z,97349.64
2019-04-03T01:25:18.405Z,97356.02
2019-04-03T01:27:47.100Z,97350.33
2019-04-03T01:30:17.290Z,97356.30
2019-04-03T01:32:46.797Z,97358.84
2019-04-03T01:35:17.389Z,97360.72
2019-04-03T01:37:46.197Z,97365.47
2019-04-03T01:40:14.746Z,97363.52
2019-04-03T01:42:43.431Z,97362.44
2019-04-03T01:45:12.077Z,97352.16
2019-04-03T01:47:41.226Z,97352.40
2019-04-03T01:50:09.926Z,97348.80
2019-04-03T01:52:38.580Z,97347.11
2019-04-03T01:55:07.322Z,97345.12
2019-04-03T01:57:39.125Z,97342.86
2019-04-03T02:00:09.661Z,97353.04
2019-04-03T02:02:39.122Z,97348.98
2019-04-03T02:05:12.147Z,97354.30
2019-04-03T02:07:40.238Z,97354.09
2019-04-03T02:10:20.486Z,97351.22
2019-04-03T02:12:51.468Z,97352.28
2019-04-03T02:15:21.587Z,97348.24
2019-04-03T02:17:51.134Z,97343.11
2019-04-03T02:20:19.819Z,97345.72
2019-04-03T02:22:48.457Z,97339.48
2019-04-03T02:25:17.115Z,97347.63
2019-04-03T02:27:45.838Z,97349.21
2019-04-03T02:30:15.647Z,97346.27
2019-04-03T02:32:45.765Z,97348.05
2019-04-03T02:35:14.396Z,97345.34
2019-04-03T02:37:43.154Z,97349.61
2019-04-03T02:40:12.346Z,97352.48
2019-04-03T02:42:42.071Z,97355.75
2019-04-03T02:45:11.363Z,97350.83
2019-04-03T02:47:40.265Z,97352.94
2019-04-03T02:50:09.043Z,97349.73
2019-04-03T02:52:37.821Z,97360.64
2019-04-03T02:55:08.445Z,97355.35
2019-04-03T02:57:42.740Z,97355.55
2019-04-03T03:00:11.800Z,97346.74
2019-04-03T03:02:44.131Z,97350.95
2019-04-03T03:05:10.808Z,97351.45
2019-04-03T03:07:39.873Z,97349.69
2019-04-03T03:10:09.213Z,97350.55
2019-04-03T03:12:39.451Z,97348.14
2019-04-03T03:15:11.908Z,97358.09
2019-04-03T03:17:39.943Z,97362.82
2019-04-03T03:20:09.478Z,97361.61
2019-04-03T03:22:41.580Z,97360.42
2019-04-03T03:25:11.967Z,97363.53
2019-04-03T03:27:42.421Z,97372.56
2019-04-03T03:30:34.265Z,97371.81
2019-04-03T03:32:41.963Z,97376.08
2019-04-03T03:35:16.239Z,97372.43
2019-04-03T03:37:41.308Z,97381.06
2019-04-03T03:40:10.217Z,97383.11
2019-04-03T03:42:40.249Z,97380.33
2019-04-03T03:45:11.084Z,97380.80
2019-04-03T03:47:40.530Z,97379.16
2019-04-03T03:50:09.569Z,97379.40
2019-04-03T03:52:39.264Z,97380.05
2019-04-03T03:55:10.922Z,97379.50
2019-04-03T03:57:41.859Z,97378.44
2019-04-03T04:00:12.572Z,97382.02
2019-04-03T04:02:44.518Z,97386.48
2019-04-03T04:05:13.245Z,97391.47
2019-04-03T04:07:42.413Z,97392.05
2019-04-03T04:10:13.680Z,97390.11
2019-04-03T04:12:43.372Z,97401.44
2019-04-03T04:15:12.085Z,97397.50
2019-04-03T04:17:40.961Z,97397.55
2019-04-03T04:20:10.179Z,97395.36
2019-04-03T04:22:39.734Z,97397.09
2019-04-03T04:25:08.729Z,97399.68
2019-04-03T04:27:39.143Z,97397.38
2019-04-03T04:30:08.971Z,97392.53
2019-04-03T04:32:37.825Z,97395.89
2019-04-03T04:35:10.333Z,97397.78
2019-04-03T04:37:40.342Z,97398.64
2019-04-03T04:40:13.024Z,97401.86
2019-04-03T04:42:42.064Z,97400.97
2019-04-03T04:45:11.898Z,97400.00
2019-04-03T04:47:41.197Z,97397.16
2019-04-03T04:50:09.909Z,97394.29
2019-04-03T04:52:38.431Z,97391.69
2019-04-03T04:55:07.119Z,97393.22
2019-04-03T04:57:35.758Z,97398.39
2019-04-03T05:00:07.597Z,97395.13
2019-04-03T05:02:36.291Z,97403.31
2019-04-03T05:05:08.951Z,97401.92
2019-04-03T05:07:37.044Z,97401.70
2019-04-03T05:10:06.966Z,97395.69
2019-04-03T05:12:35.606Z,97403.66
2019-04-03T05:15:04.962Z,97403.73
2019-04-03T05:17:38.777Z,97400.30
2019-04-03T05:20:08.241Z,97405.03
2019-04-03T05:22:36.888Z,97405.59
2019-04-03T05:25:06.286Z,97402.73
2019-04-03T05:27:34.974Z,97401.59
2019-04-03T05:30:05.538Z,97395.37
2019-04-03T05:32:34.178Z,97408.61
2019-04-03T05:35:02.779Z,97404.86
2019-04-03T05:37:31.656Z,97401.80
2019-04-03T05:40:00.376Z,97403.91
2019-04-03T05:42:29.538Z,97407.20
2019-04-03T05:44:58.264Z,97401.09
2019-04-03T05:47:27.150Z,97399.36
2019-04-03T05:49:56.538Z,97391.00
2019-04-03T05:52:25.217Z,97395.58
2019-04-03T05:54:54.375Z,97381.47
2019-04-03T05:57:23.526Z,97382.23
2019-04-03T06:00:00.088Z,97389.80
2019-04-03T06:02:22.652Z,97390.72
2019-04-03T06:04:51.380Z,97384.46
2019-04-03T06:07:20.080Z,97377.30
2019-04-03T06:09:48.889Z,97389.73
2019-04-03T06:12:19.128Z,97383.36
2019-04-03T06:14:49.629Z,97384.02
2019-04-03T06:17:18.259Z,97379.54
2019-04-03T06:19:46.916Z,97376.83
2019-04-03T06:22:17.107Z,97380.00
2019-04-03T06:24:45.968Z,97375.51
2019-04-03T06:27:14.851Z,97377.80
2019-04-03T06:29:43.494Z,97378.31
2019-04-03T06:32:12.276Z,97377.23
2019-04-03T06:34:43.483Z,97376.97
2019-04-03T06:37:11.473Z,97372.50
2019-04-03T06:39:40.165Z,97372.67
2019-04-03T06:42:13.002Z,97374.54
2019-04-03T06:44:40.694Z,97372.02
2019-04-03T06:47:09.634Z,97372.17
2019-04-03T06:49:40.257Z,97372.07
2019-04-03T06:52:08.795Z,97370.25
2019-04-03T06:54:37.542Z,97373.01
2019-04-03T06:57:07.672Z,97370.48
2019-04-03T06:59:36.397Z,97367.95
2019-04-03T07:02:06.750Z,97373.77
2019-04-03T07:04:37.493Z,97375.55
2019-04-03T07:07:05.879Z,97369.23
2019-04-03T07:09:36.716Z,97375.11
2019-04-03T07:12:04.972Z,97370.87
2019-04-03T07:14:33.659Z,97365.63
2019-04-03T07:17:05.265Z,97373.25
2019-04-03T07:19:34.286Z,97360.58
2019-04-03T07:22:03.205Z,97363.06
2019-04-03T07:24:32.513Z,97367.38
2019-04-03T07:27:01.548Z,97362.68
2019-04-03T07:29:30.114Z,97366.02
2019-04-03T07:31:59.146Z,97363.95
2019-04-03T07:34:27.986Z,97361.06
2019-04-03T07:36:56.643Z,97362.67
2019-04-03T07:39:25.622Z,97367.01
2019-04-03T07:41:54.915Z,97359.56
2019-04-03T07:44:23.594Z,97364.75
2019-04-03T07:46:55.213Z,97359.58
2019-04-03T07:49:24.170Z,97362.40
2019-04-03T07:51:56.729Z,97367.48
2019-04-03T07:54:26.789Z,97356.13
2019-04-03T07:56:57.565Z,97352.81
2019-04-03T07:59:27.678Z,97358.05
2019-04-03T08:01:56.395Z,97356.77
2019-04-03T08:04:35.431Z,97351.92
2019-04-03T08:07:09.034Z,97355.69
2019-04-03T08:09:37.630Z,97353.88
2019-04-03T08:12:08.955Z,97358.25
2019-04-03T08:14:40.463Z,97350.97
2019-04-03T08:17:08.059Z,97347.89
2019-04-03T08:19:38.455Z,97343.75
2019-04-03T08:22:07.107Z,97340.95
2019-04-03T08:24:36.128Z,97336.09
2019-04-03T08:27:07.837Z,97321.86
2019-04-03T08:29:38.043Z,97324.52
2019-04-03T08:32:08.366Z,97322.26
2019-04-03T08:34:36.955Z,97309.30
2019-04-03T08:37:05.683Z,97312.91
2019-04-03T08:39:34.365Z,97308.58
2019-04-03T08:42:03.835Z,97314.38
2019-04-03T08:44:33.836Z,97309.55
2019-04-03T08:47:03.289Z,97306.38
2019-04-03T08:49:32.282Z,97298.75
2019-04-03T08:52:01.023Z,97294.16
2019-04-03T08:54:29.628Z,97290.78
2019-04-03T08:56:58.583Z,97292.85
2019-04-03T08:59:28.800Z,97288.96
2019-04-03T09:01:58.347Z,97281.00
2019-04-03T09:04:27.288Z,97285.16
2019-04-03T09:06:56.299Z,97276.28
2019-04-03T09:09:25.312Z,97280.63
2019-04-03T09:11:54.749Z,97276.66
2019-04-03T09:14:25.310Z,97270.32
2019-04-03T09:16:58.856Z,97259.22
2019-04-03T09:19:27.428Z,97261.73
2019-04-03T09:21:56.414Z,97256.39
2019-04-03T09:24:25.348Z,97248.53
2019-04-03T09:26:54.256Z,97252.93
2019-04-03T09:29:22.997Z,97243.62
2019-04-03T09:31:53.117Z,97239.80
2019-04-03T09:34:22.085Z,97236.24
2019-04-03T09:36:57.821Z,97233.73
2019-04-03T09:39:27.863Z,97224.66
2019-04-03T09:41:56.581Z,97217.17
2019-04-03T09:44:25.928Z,97210.77
2019-04-03T09:46:55.122Z,97208.66
2019-04-03T09:49:24.485Z,97202.27
2019-04-03T09:51:53.309Z,97192.17
2019-04-03T09:54:22.844Z,97196.20
2019-04-03T09:56:59.790Z,97191.31
2019-04-03T09:59:21.890Z,97185.52
2019-04-03T10:01:50.471Z,97181.06
2019-04-03T10:04:24.135Z,97167.14
2019-04-03T10:07:01.445Z,97165.94
2019-04-03T10:09:29.385Z,97155.15
2019-04-03T10:11:58.059Z,97152.22
2019-04-03T10:14:28.195Z,97150.42
2019-04-03T10:16:57.687Z,97142.45
2019-04-03T10:19:28.077Z,97131.78
2019-04-03T10:21:59.174Z,97126.31
2019-04-03T10:24:28.944Z,97126.95
2019-04-03T10:26:58.260Z,97120.35
2019-04-03T10:29:27.369Z,97114.63
2019-04-03T10:31:56.397Z,97097.70
2019-04-03T10:34:25.068Z,97081.80
2019-04-03T10:36:53.789Z,97080.27
2019-04-03T10:39:22.560Z,97080.27
2019-04-03T10:41:52.759Z,97088.95
2019-04-03T10:44:21.567Z,97088.13
2019-04-03T10:46:51.433Z,97088.89
2019-04-03T10:49:20.110Z,97083.81
2019-04-03T10:51:48.789Z,97079.53
2019-04-03T10:54:17.668Z,97078.47
2019-04-03T10:56:46.374Z,97070.93
2019-04-03T10:59:17.940Z,97066.91
2019-04-03T11:01:45.753Z,97061.02
2019-04-03T11:04:14.511Z,97059.86
2019-04-03T11:06:43.309Z,97063.29
2019-04-03T11:09:12.444Z,97056.09
2019-04-03T11:11:43.032Z,97056.85
2019-04-03T11:14:11.893Z,97040.48
2019-04-03T11:16:40.950Z,97037.16
2019-04-03T11:19:09.629Z,97037.46
2019-04-03T11:21:38.307Z,97032.12
2019-04-03T11:24:07.352Z,97021.19
2019-04-03T11:26:36.202Z,97016.48
2019-04-03T11:29:05.080Z,97013.69
2019-04-03T11:31:40.967Z,97015.95
2019-04-03T11:34:04.202Z,97008.47
2019-04-03T11:36:32.965Z,97008.64
2019-04-03T11:39:11.319Z,96993.94
2019-04-03T11:41:32.358Z,96995.73
2019-04-03T11:44:01.317Z,96990.94
2019-04-03T11:46:30.040Z,96990.67
2019-04-03T11:48:58.723Z,96986.92
2019-04-03T11:51:29.706Z,96986.09
2019-04-03T11:53:58.032Z,96985.16
2019-04-03T11:56:31.904Z,96977.56
2019-04-03T11:59:00.650Z,96974.41
2019-04-03T12:01:34.706Z,96974.81
2019-04-03T12:04:03.387Z,96966.73
2019-04-03T12:06:32.333Z,96966.52
2019-04-03T12:09:01.322Z,96970.23
2019-04-03T12:11:30.026Z,96973.53
2019-04-03T12:13:58.773Z,96976.04
2019-04-03T12:16:27.533Z,96982.48
2019-04-03T12:18:56.215Z,96980.45
2019-04-03T12:21:24.883Z,96980.45
2019-04-03T12:23:54.283Z,96986.55
2019-04-03T12:26:23.177Z,96968.94
2019-04-03T12:28:52.013Z,96993.92
2019-04-03T12:31:20.699Z,96978.84
2019-04-03T12:33:56.422Z,96984.03
2019-04-03T12:36:20.239Z,96981.23
2019-04-03T12:38:48.939Z,96980.43
2019-04-03T12:41:19.109Z,96984.59
2019-04-03T12:43:50.014Z,96985.53
2019-04-03T12:46:19.906Z,96988.85
2019-04-03T12:48:50.983Z,97002.75
2019-04-03T12:51:20.346Z,96988.47
2019-04-03T12:53:49.896Z,96993.36
2019-04-03T12:56:18.928Z,96999.66
2019-04-03T12:58:47.599Z,97012.36
2019-04-03T13:01:17.993Z,97015.98
2019-04-03T13:03:46.729Z,97015.59
2019-04-03T13:06:15.395Z,97016.58
2019-04-03T13:08:45.402Z,97017.40
2019-04-03T13:11:18.674Z,97020.11
2019-04-03T13:13:46.031Z,97024.91
2019-04-03T13:16:14.722Z,97028.77
2019-04-03T13:18:43.393Z,97024.43
2019-04-03T13:21:12.055Z,97023.03
2019-04-03T13:23:40.944Z,97023.37
2019-04-03T13:26:09.708Z,97030.63
2019-04-03T13:28:40.243Z,97025.45
2019-04-03T13:31:12.888Z,97035.05
2019-04-03T13:33:42.109Z,97034.58
2019-04-03T13:36:10.765Z,97034.16
2019-04-03T13:38:39.553Z,97037.20
2019-04-03T13:41:10.652Z,97037.14
2019-04-03T13:43:39.054Z,97037.09
2019-04-03T13:46:15.726Z,97041.05
2019-04-03T13:48:51.470Z,97042.19
2019-04-03T13:51:25.353Z,97045.34
2019-04-03T13:53:54.542Z,97047.47
2019-04-03T13:56:25.113Z,97038.13
2019-04-03T13:58:54.711Z,97040.02
2019-04-03T14:01:23.741Z,97034.23
2019-04-03T14:03:52.783Z,97030.38
2019-04-03T14:06:23.384Z,97037.91
2019-04-03T14:08:52.214Z,97031.64
2019-04-03T14:11:21.010Z,97026.70
2019-04-03T14:13:49.656Z,97025.31
2019-04-03T14:16:22.163Z,97023.15
2019-04-03T14:18:50.496Z,97023.30
2019-04-03T14:21:19.155Z,97019.77
2019-04-03T14:23:47.961Z,97016.94
2019-04-03T14:26:17.064Z,97013.20
2019-04-03T14:28:47.795Z,97013.55
2019-04-03T14:31:17.480Z,97001.17
2019-04-03T14:33:47.317Z,96998.80
2019-04-03T14:36:19.237Z,96998.78
2019-04-03T14:38:47.013Z,96998.22
2019-04-03T14:41:18.610Z,96989.22
2019-04-03T14:43:46.186Z,96991.32
2019-04-03T14:46:17.474Z,96991.16
2019-04-03T14:48:45.880Z,96984.63
2019-04-03T14:51:14.983Z,96989.48
2019-04-03T14:53:43.722Z,96979.45
2019-04-03T14:56:12.692Z,96984.09
2019-04-03T14:58:41.876Z,96981.35
2019-04-03T15:01:10.823Z,96974.89
2019-04-03T15:03:40.353Z,96974.05
2019-04-03T15:06:09.083Z,96975.81
2019-04-03T15:08:38.298Z,96971.72
2019-04-03T15:11:07.153Z,96971.43
2019-04-03T15:13:35.778Z,96973.73
2019-04-03T15:16:04.636Z,96972.83
2019-04-03T15:18:33.508Z,96974.23
2019-04-03T15:21:02.050Z,96966.22
2019-04-03T15:23:31.050Z,96969.23
2019-04-03T15:26:00.044Z,96964.45
2019-04-03T15:28:30.997Z,96963.61
2019-04-03T15:30:59.331Z,96958.69
2019-04-03T15:33:28.365Z,96955.56
2019-04-03T15:35:57.034Z,96954.31
2019-04-03T15:38:27.733Z,96958.27
2019-04-03T15:40:59.450Z,96957.13
2019-04-03T15:43:30.981Z,96957.39
2019-04-03T15:46:01.930Z,96957.30
2019-04-03T15:48:31.188Z,96953.73
2019-04-03T15:51:00.669Z,96949.88
2019-04-03T15:53:29.249Z,96955.91
2019-04-03T15:55:58.431Z,96948.22
2019-04-03T15:58:27.296Z,96954.64
2019-04-03T16:00:57.725Z,96947.66
2019-04-03T16:03:27.416Z,96944.17
2019-04-03T16:05:56.477Z,96948.51
2019-04-03T16:08:25.540Z,96941.55
2019-04-03T16:10:57.181Z,96945.48
2019-04-03T16:13:26.329Z,96948.67
2019-04-03T16:15:56.340Z,96943.33
2019-04-03T16:18:25.436Z,96942.77
2019-04-03T16:20:54.085Z,96949.34
2019-04-03T16:23:23.027Z,96942.05
2019-04-03T16:25:51.672Z,96939.34
2019-04-03T16:28:20.565Z,96941.38
2019-04-03T16:30:54.457Z,96947.64
2019-04-03T16:33:24.803Z,96945.55
2019-04-03T16:35:53.884Z,96939.89
2019-04-03T16:38:22.848Z,96947.56
2019-04-03T16:40:52.331Z,96949.30
2019-04-03T16:43:23.119Z,96948.54
2019-04-03T16:45:51.708Z,96946.10
2019-04-03T16:48:20.777Z,96949.33
2019-04-03T16:50:49.990Z,96947.59
2019-04-03T16:53:20.524Z,96949.97
2019-04-03T16:55:49.392Z,96951.38
2019-04-03T16:58:18.120Z,96951.25
2019-04-03T17:00:46.773Z,96956.61
2019-04-03T17:03:15.779Z,96957.09
2019-04-03T17:05:45.329Z,96957.52
2019-04-03T17:08:14.102Z,96960.41
2019-04-03T17:10:42.620Z,96954.64
2019-04-03T17:13:11.278Z,96962.05
2019-04-03T17:15:41.351Z,96967.14
2019-04-03T17:18:10.815Z,96962.44
2019-04-03T17:20:39.594Z,96967.28
2019-04-03T17:23:11.579Z,96966.51
2019-04-03T17:25:47.736Z,96967.34
2019-04-03T17:28:10.158Z,96971.88
2019-04-03T17:30:39.107Z,96972.30
2019-04-03T17:33:07.755Z,96972.53
2019-04-03T17:35:38.864Z,96979.38
2019-04-03T17:38:09.945Z,96982.29
2019-04-03T17:40:38.903Z,96983.95
2019-04-03T17:43:07.617Z,96985.50
2019-04-03T17:45:36.158Z,96986.72
2019-04-03T17:48:15.285Z,96989.09
2019-04-03T17:50:45.031Z,96986.98
2019-04-03T17:53:13.605Z,96992.30
2019-04-03T17:55:45.110Z,96992.00
2019-04-03T17:58:12.699Z,96997.92
2019-04-03T18:00:41.363Z,96996.41
2019-04-03T18:03:10.069Z,97001.17
2019-04-03T18:05:38.756Z,97000.04
2019-04-03T18:08:07.332Z,96996.94
2019-04-03T18:10:36.148Z,97005.84
2019-04-03T18:13:05.014Z,97009.33
2019-04-03T18:15:34.679Z,97012.72
2019-04-03T18:18:03.795Z,96999.94
2019-04-03T18:20:34.761Z,97001.95
2019-04-03T18:23:03.533Z,97004.81
2019-04-03T18:25:33.737Z,97011.66
2019-04-03T18:28:04.840Z,97011.42
2019-04-03T18:30:33.195Z,97013.74
2019-04-03T18:33:01.884Z,97018.28
2019-04-03T18:35:30.693Z,97023.02
2019-04-03T18:37:59.468Z,97019.63
2019-04-03T18:40:28.126Z,97028.86
2019-04-03T18:42:56.834Z,97031.05
2019-04-03T18:45:26.014Z,97030.27
2019-04-03T18:47:55.018Z,97031.56
2019-04-03T18:50:23.646Z,97039.13
2019-04-03T18:52:52.337Z,97031.27
2019-04-03T18:55:21.380Z,97033.97
2019-04-03T18:57:50.463Z,97039.83
2019-04-03T19:00:20.689Z,97034.35
2019-04-03T19:02:49.595Z,97037.91
2019-04-03T19:05:18.508Z,97032.38
2019-04-03T19:07:47.138Z,97036.18
2019-04-03T19:10:18.246Z,97039.11
2019-04-03T19:12:46.727Z,97039.89
2019-04-03T19:15:15.582Z,97045.86
2019-04-03T19:17:44.336Z,97042.27
2019-04-03T19:20:13.093Z,97039.27
2019-04-03T19:22:43.287Z,97044.23
2019-04-03T19:25:12.043Z,97044.23
2019-04-03T19:27:40.685Z,97038.64
2019-04-03T19:30:09.744Z,97045.88
2019-04-03T19:32:38.463Z,97043.64
2019-04-03T19:35:09.934Z,97040.08
2019-04-03T19:37:38.732Z,97043.37
2019-04-03T19:40:10.592Z,97046.44
2019-04-03T19:42:41.934Z,97047.84
2019-04-03T19:45:13.031Z,97046.81
2019-04-03T19:48:03.723Z,97043.87
2019-04-03T19:50:32.405Z,97053.30
2019-04-03T19:53:01.027Z,97050.05
2019-04-03T19:55:29.754Z,97057.38
2019-04-03T19:57:58.412Z,97054.91
2019-04-03T20:00:41.650Z,97058.94
2019-04-03T20:03:13.703Z,97064.73
2019-04-03T20:05:43.658Z,97062.59
2019-04-03T20:08:11.363Z,97061.55
2019-04-03T20:10:40.009Z,97074.11
2019-04-03T20:13:09.242Z,97072.02
2019-04-03T20:15:38.074Z,97077.30
2019-04-03T20:18:09.099Z,97081.53
2019-04-03T20:20:37.668Z,97085.41
2019-04-03T20:23:06.671Z,97088.02
2019-04-03T20:25:35.315Z,97083.91
2019-04-03T20:28:04.097Z,97083.39
2019-04-03T20:30:33.343Z,97086.23
2019-04-03T20:33:02.602Z,97090.98
2019-04-03T20:35:32.668Z,97090.73
2019-04-03T20:38:01.352Z,97095.51
2019-04-03T20:40:32.026Z,97093.33
2019-04-03T20:43:00.361Z,97096.69
2019-04-03T20:45:29.055Z,97099.81
2019-04-03T20:47:58.001Z,97101.66
2019-04-03T20:50:26.680Z,97096.75
2019-04-03T20:52:57.003Z,97103.75
2019-04-03T20:55:25.664Z,97108.20
2019-04-03T20:57:55.934Z,97105.59
2019-04-03T21:00:24.820Z,97107.95
2019-04-03T21:02:53.476Z,97107.95
2019-04-03T21:05:33.028Z,97112.56
2019-04-03T21:08:03.016Z,97113.36
2019-04-03T21:10:32.773Z,97118.23
2019-04-03T21:13:03.100Z,97119.76
2019-04-03T21:15:33.884Z,97129.42
2019-04-03T21:18:02.588Z,97118.80
2019-04-03T21:20:31.244Z,97119.19
2019-04-03T21:23:02.914Z,97130.66
2019-04-03T21:25:30.457Z,97129.49
2019-04-03T21:27:59.068Z,97126.13
2019-04-03T21:30:28.883Z,97126.36
2019-04-03T21:32:57.976Z,97133.88
2019-04-03T21:35:30.667Z,97136.63
2019-04-03T21:37:59.473Z,97122.77
2019-04-03T21:40:28.052Z,97121.84
2019-04-03T21:42:57.824Z,97119.37
2019-04-03T21:45:27.117Z,97121.05
2019-04-03T21:47:55.723Z,97114.25
2019-04-03T21:50:24.345Z,97121.47
2019-04-03T21:52:53.804Z,97126.98
2019-04-03T21:55:25.118Z,97130.08
2019-04-03T21:57:53.945Z,97135.34
2019-04-03T22:00:27.190Z,97134.27
2019-04-03T22:02:57.405Z,97130.66
2019-04-03T22:05:25.915Z,97133.02
2019-04-03T22:07:54.673Z,97130.78
2019-04-03T22:10:23.315Z,97130.98
2019-04-03T22:12:51.842Z,97131.51
2019-04-03T22:15:20.721Z,97130.63
2019-04-03T22:17:52.411Z,97129.25
2019-04-03T22:20:22.192Z,97136.94
2019-04-03T22:22:51.133Z,97131.48
2019-04-03T22:25:21.198Z,97130.45
2019-04-03T22:27:49.847Z,97134.75
2019-04-03T22:30:19.995Z,97121.05
2019-04-03T22:32:48.916Z,97127.63
2019-04-03T22:35:17.558Z,97123.75
2019-04-03T22:37:46.105Z,97125.48
2019-04-03T22:40:14.747Z,97128.33
2019-04-03T22:42:45.401Z,97129.53
2019-04-03T22:45:13.818Z,97129.35
2019-04-03T22:47:42.399Z,97134.05
2019-04-03T22:50:11.046Z,97135.64
2019-04-03T22:52:40.444Z,97133.33
2019-04-03T22:55:10.725Z,97134.67
2019-04-03T22:57:39.235Z,97127.23
2019-04-03T23:00:08.528Z,97133.59
2019-04-03T23:02:37.170Z,97136.75
2019-04-03T23:05:06.825Z,97134.92
2019-04-03T23:07:35.494Z,97149.03
2019-04-03T23:10:06.651Z,97143.47
2019-04-03T23:12:35.370Z,97139.48
2019-04-03T23:15:04.499Z,97142.17
2019-04-03T23:17:33.491Z,97142.02
2019-04-03T23:20:02.217Z,97138.77
2019-04-03T23:22:31.017Z,97135.50
2019-04-03T23:25:00.129Z,97134.57
2019-04-03T23:27:28.924Z,97136.72
2019-04-03T23:29:57.690Z,97135.53
2019-04-03T23:32:26.409Z,97132.80
2019-04-03T23:34:55.148Z,97130.09
2019-04-03T23:37:24.777Z,97133.84
2019-04-03T23:39:54.217Z,97134.18
2019-04-03T23:42:24.210Z,97126.35
2019-04-03T23:44:52.964Z,97129.86
2019-04-03T23:47:21.666Z,97121.20
2019-04-03T23:49:51.195Z,97126.11
2019-04-03T23:52:20.477Z,97127.83
2019-04-03T23:54:49.201Z,97127.70
2019-04-03T23:57:18.097Z,97114.13
2019-04-03T23:59:46.815Z,97115.13
